METAR Data
IDs: Format: Raw Decoded Include TAF

Data at: 2205 UTC 18 Sep 2018

K21D 182155Z AUTO 00000KT 7SM OVC009 16/15 A3000 RMK AO2
K21D 182135Z AUTO 00000KT 10SM OVC009 17/15 A3000 RMK AO2
K21D 182115Z AUTO 34005KT 10SM OVC009 17/15 A3000 RMK AO2
K21D 182055Z AUTO 30004KT 10SM OVC009 17/15 A3000 RMK AO2 P0001
K21D 182035Z AUTO 34005KT 10SM OVC007 17/15 A2999 RMK AO2
K21D 182015Z AUTO 02005KT 10SM OVC007 17/16 A2998 RMK AO2
K21D 181955Z AUTO 36004KT 10SM OVC007 17/15 A2999 RMK AO2
K21D 181935Z AUTO 32003KT 10SM OVC009 17/15 A3000 RMK AO2
K21D 181915Z AUTO 34003KT 10SM OVC009 17/15 A2999 RMK AO2
K21D 181855Z AUTO 33005KT 10SM OVC009 17/15 A2999 RMK AO2
K21D 181835Z AUTO 35003KT 10SM OVC009 17/15 A2999 RMK AO2
K21D 181815Z AUTO 34004KT 10SM OVC007 17/15 A2999 RMK AO2
K21D 181755Z AUTO 00000KT 10SM OVC007 17/15 A3000 RMK AO2 P0001
K21D 181735Z AUTO 00000KT 10SM OVC007 17/15 A2999 RMK AO2 P0001
K21D 181715Z AUTO 07005KT 10SM OVC005 16/15 A2999 RMK AO2 P0001
K21D 181655Z AUTO 06003KT 10SM OVC005 16/15 A2999 RMK AO2
K21D 181635Z AUTO 02006KT 10SM OVC005 15/15 A2999 RMK AO2
K21D 181615Z AUTO 02003KT 10SM OVC003 15/15 A3000 RMK AO2
K21D 181555Z AUTO 36007KT 10SM OVC003 15/15 A2999 RMK AO2
K21D 181535Z AUTO 09007KT 7SM OVC003 15/15 A2996 RMK AO2 LTG DSNT S
K21D 181515Z AUTO 03004KT 5SM BR OVC003 15/15 A2999 RMK AO2
K21D 181455Z AUTO 33004KT 7SM OVC003 15/15 A3000 RMK AO2
K21D 181435Z AUTO 33004KT 5SM BR OVC003 16/15 A3001 RMK AO2 LTG DSNT S
K21D 181416Z AUTO 30004KT 10SM OVC003 15/15 A3003 RMK AO2
K21D 181355Z AUTO 25011G15KT 10SM OVC003 15/15 A3005 RMK AO2 LTG DSNT SE AND SW P0001
K21D 181335Z AUTO 00000KT 10SM OVC003 15/15 A2996 RMK AO2 LTG DSNT SW
K21D 181315Z AUTO 05003KT 10SM OVC003 15/15 A2995 RMK AO2 LTG DSNT S THRU W
K21D 181255Z AUTO 00000KT 10SM BKN003 15/15 A2995 RMK AO2 LTG DSNT S AND SW
K21D 181235Z AUTO 00000KT 10SM SCT007 15/15 A2996 RMK AO2 LTG DSNT S AND SW
K21D 181215Z AUTO 00000KT 10SM OVC003 15/15 A2997 RMK AO2 LTG DSNT S AND SW
K21D 181155Z AUTO 00000KT 10SM BKN003 15/15 A2998 RMK AO2 LTG DSNT SE AND S P0001
K21D 181135Z AUTO 32004KT 10SM SCT003 15/15 A2997 RMK AO2 LTG DSNT SE THRU SW P0001
K21D 181115Z AUTO 00000KT 10SM BKN003 15/15 A2995 RMK AO2 LTG DSNT SE AND S
K21D 181055Z AUTO 00000KT 10SM SCT003 15/15 A2996 RMK AO2 LTG DSNT SE AND SW
K21D 181035Z AUTO 00000KT 10SM SCT003 15/15 A2997 RMK AO2 LTG DSNT SE THRU W
K21D 181015Z AUTO 00000KT 10SM BKN003 15/15 A2997 RMK AO2 LTG DSNT SE AND SW
K21D 180955Z AUTO 05003KT 10SM CLR 15/15 A2993 RMK AO2 LTG DSNT SE THRU SW
K21D 180935Z AUTO 19005KT 10SM VCTS SCT003 15/15 A2995 RMK AO2 LTG DSNT E THRU S
K21D 180915Z AUTO 00000KT 10SM -VCTSRA SCT003 SCT031 SCT047 15/15 A2996 RMK AO2 LTG DSNT ALQS
K21D 180855Z AUTO 08010KT 2 1/2SM TSRA SCT039 SCT050 BKN090 15/15 A2991 RMK AO2 LTG DSNT ALQS
K21D 180835Z AUTO 23004KT 10SM -TSDZ SCT100 15/15 A2998 RMK AO2 LTG DSNT ALQS
K21D 180815Z AUTO 02004KT 10SM TS SCT013 SCT110 15/15 A2996 RMK AO2 LTG DSNT E SW AND W
K21D 180755Z AUTO 11005KT 10SM -VCTSDZ SCT005 BKN014 BKN046 15/15 A2997 RMK AO2 LTG DSNT ALQS
K21D 180735Z AUTO 05006KT 10SM -TSRA SCT004 BKN050 BKN065 15/15 A2997 RMK AO2 LTG DSNT ALQS
K21D 180715Z AUTO 00000KT 10SM -VCTSRA SCT045 SCT060 SCT070 15/15 A2999 RMK AO2 LTG DSNT ALQS
K21D 180655Z AUTO 00000KT 10SM -TSRA SCT008 SCT013 BKN060 15/15 A3000 RMK AO2 LTG DSNT ALQS P0001
K21D 180635Z AUTO 00000KT 4SM -VCTSRA SCT014 SCT029 BKN060 15/15 A2998 RMK AO2 LTG DSNT ALQS
K21D 180615Z AUTO 07005KT 10SM SCT050 SCT060 SCT085 15/15 A2998 RMK AO2 LTG DSNT ALQS
K21D 180555Z AUTO 00000KT 10SM TS BKN055 BKN080 15/15 A2999 RMK AO2 LTG DSNT SE THRU W P0001
K21D 180535Z AUTO 00000KT 10SM TS OVC049 15/15 A2999 RMK AO2 LTG DSNT SE AND W P0001
K21D 180515Z AUTO 00000KT 10SM BKN049 OVC085 15/15 A2999 RMK AO2 LTG DSNT SE THRU W
K21D 180455Z AUTO 00000KT 10SM TS SCT049 SCT085 14/14 A2999 RMK AO2 LTG DSNT S P0001
K21D 180435Z AUTO 00000KT 10SM CLR 14/14 A3000 RMK AO2 LTG DSNT S AND SW P0001
K21D 180415Z AUTO 00000KT 10SM VCTS CLR 15/14 A3000 RMK AO2 LTG DSNT SW P0001
K21D 180355Z AUTO 00000KT 10SM CLR 15/14 A2999 RMK AO2
K21D 180335Z AUTO 00000KT 10SM CLR 15/15 A2999 RMK AO2
K21D 180315Z AUTO 00000KT 10SM CLR 15/15 A2999 RMK AO2
K21D 180255Z AUTO 36003KT 10SM CLR 15/15 A2999 RMK AO2 P0001
K21D 180235Z AUTO 35003KT 10SM CLR 15/15 A2999 RMK AO2
K21D 180215Z AUTO 00000KT 10SM CLR 15/15 A2999 RMK AO2
K21D 180155Z AUTO 35005KT 10SM SCT014 15/15 A2999 RMK AO2 P0002
K21D 180135Z AUTO 01004KT 10SM SCT012 15/15 A2998 RMK AO2 P0001
K21D 180115Z AUTO 35003KT 10SM SCT012 16/15 A2998 RMK AO2 P0001
K21D 180055Z AUTO 00000KT 10SM SCT010 16/15 A2997 RMK AO2 P0001
K21D 180035Z AUTO 01005KT 10SM SCT120 16/15 A2996 RMK AO2 P0001
K21D 180015Z AUTO 16008KT 10SM SCT120 16/15 A2994 RMK AO2 P0001
K21D 172355Z AUTO 00000KT 10SM CLR 16/15 A2993 RMK AO2 P0001
K21D 172335Z AUTO 11007KT 10SM CLR 16/15 A2988 RMK AO2 P0001
K21D 172315Z AUTO 08006KT 10SM -RA SCT050 SCT075 SCT100 16/15 A2989 RMK AO2 LTG DSNT SE P0001
K21D 172255Z AUTO 00000KT 10SM -RA SCT090 16/15 A2993 RMK AO2 P0001
K21D 172235Z AUTO 36007KT 10SM SCT090 16/15 A2996 RMK AO2 LTG DSNT SW P0001
K21D 172215Z AUTO 09007KT 10SM SCT100 16/15 A2992 RMK AO2 LTG DSNT SE P0001
K21D 172155Z AUTO 08006KT 10SM -DZ SCT048 SCT070 BKN110 15/15 A2995 RMK AO2 LTG DSNT SE P0001
K21D 172135Z AUTO 07005KT 10SM -RA SCT034 SCT044 BKN090 15/15 A2998 RMK AO2 P0001
K21D 172115Z AUTO 34003KT 5SM RA BKN034 BKN042 OVC049 15/14 A3003 RMK AO2 LTG DSNT SE
K21D 172055Z AUTO 36003KT 5SM +TSRA SCT032 BKN049 OVC075 15/14 A3005 RMK AO2 LTG DSNT E AND S P0001
K21D 172035Z AUTO 30006KT 10SM RA BKN060 OVC075 16/14 A3006 RMK AO2 LTG DSNT SE AND S P0001
K21D 172015Z AUTO 33008G16KT 10SM VCTSRA BKN075 OVC085 16/14 A3005 RMK AO2 LTG DSNT NE THRU SW
K21D 171955Z AUTO 29003G15KT 10SM -VCTSRA SCT050 BKN065 OVC080 17/14 A3004 RMK AO2 LTG DSNT ALQS P0006
K21D 171935Z AUTO 30016G23KT 10SM TSRA SCT030 OVC065 17/15 A3006 RMK AO2 LTG DSNT ALQS P0004
K21D 171915Z AUTO 33018G27KT 10SM VCTS SCT030 SCT050 BKN065 21/14 A3001 RMK AO2 LTG DSNT SW AND W
K21D 171855Z AUTO 34011KT 10SM VCTS SCT050 SCT065 22/16 A2997 RMK AO2 LTG DSNT SW THRU NW
K21D 171835Z AUTO 34006KT 10SM VCTS CLR 23/16 A2996 RMK AO2 LTG DSNT SW AND NW
K21D 171815Z AUTO 36004KT 10SM CLR 24/17 A2995 RMK AO2 LTG DSNT W AND NW
K21D 171755Z AUTO 35005KT 10SM CLR 24/16 A2994 RMK AO2 LTG DSNT W
K21D 171735Z AUTO 35007KT 10SM CLR 25/17 A2993 RMK AO2 LTG DSNT W
K21D 171715Z AUTO 35007KT 10SM CLR 25/18 A2993 RMK AO2 LTG DSNT W
K21D 171655Z AUTO 33008KT 10SM CLR 25/18 A2993 RMK AO2 LTG DSNT W
K21D 171635Z AUTO 34007KT 10SM CLR 25/18 A2992 RMK AO2
K21D 171615Z AUTO 36004KT 10SM CLR 25/18 A2991 RMK AO2
K21D 171555Z AUTO 03005KT 10SM CLR 25/18 A2992 RMK AO2 LTG DSNT W
K21D 171535Z AUTO 01004KT 10SM CLR 24/18 A2993 RMK AO2
K21D 171515Z AUTO 35006KT 10SM CLR 23/18 A2993 RMK AO2
K21D 171455Z AUTO 36004KT 10SM CLR 23/18 A2993 RMK AO2
K21D 171435Z AUTO 01005KT 10SM CLR 23/18 A2992 RMK AO2
K21D 171415Z AUTO 35009KT 10SM CLR 22/18 A2992 RMK AO2
K21D 171355Z AUTO 36004KT 10SM CLR 22/18 A2992 RMK AO2
K21D 171335Z AUTO 34007KT 10SM CLR 22/18 A2992 RMK AO2
K21D 171315Z AUTO 32007KT 10SM CLR 22/18 A2992 RMK AO2
K21D 171255Z AUTO 00000KT 10SM CLR 21/18 A2991 RMK AO2
K21D 171235Z AUTO 00000KT 10SM CLR 20/18 A2991 RMK AO2
K21D 171215Z AUTO 00000KT 10SM CLR 19/17 A2990 RMK AO2
K21D 171155Z AUTO 00000KT 10SM CLR 19/17 A2990 RMK AO2
K21D 171135Z AUTO 00000KT 10SM CLR 20/17 A2989 RMK AO2
K21D 171115Z AUTO 00000KT 10SM CLR 20/17 A2989 RMK AO2
K21D 171055Z AUTO 00000KT 10SM CLR 20/17 A2989 RMK AO2
K21D 171035Z AUTO 20003KT 10SM CLR 20/17 A2989 RMK AO2
K21D 171015Z AUTO 21004KT 10SM SCT075 21/17 A2988 RMK AO2